• Join FlightAware (Why Join?)
  • Login
  • US Flag 
01:43AM EDT


 

Airport Tracker/Info


-or-


 

Live Flight TrackerFlight Track Log ✈ MSR391 ✈ 22-Jan-2014 ✈ HECA / CAI - HESN / ASW

Flight Track Log - Related Links

Times and Time Zones

All times are in EST time to prevent confusion due to time zone crossing. See the MSR391 flight status page for this flight to view local times or setup timezone preferences in your user account.

Time Position Orientation Groundspeed Altitude Reporting Facility
EST Latitude Longitude Course Direction KTS MPH feet Rate Location/Type
12:19AM 29.5065 31.5544 168° South  Level Estimated
12:20AM 29.3833 31.5840 168° South  Level Estimated
12:21AM 29.2602 31.6135 168° South  Level Estimated
12:22AM 29.1371 31.6429 168° South  Level Estimated
12:23AM 29.0139 31.6723 168° South  Level Estimated
12:24AM 28.8908 31.7015 168° South  Level Estimated
12:25AM 28.7676 31.7308 168° South  Level Estimated
12:26AM 28.6445 31.7599 168° South  Level Estimated
12:27AM 28.5213 31.7890 168° South  Level Estimated
12:28AM 28.3981 31.8180 168° South  Level Estimated
12:29AM 28.2750 31.8469 168° South  Level Estimated
12:30AM 28.1518 31.8758 168° South  Level Estimated
12:31AM 28.0286 31.9046 168° South  Level Estimated
12:32AM 27.9054 31.9333 168° South  Level Estimated
12:33AM 27.7822 31.9620 168° South  Level Estimated
12:34AM 27.6590 31.9906 168° South  Level Estimated
12:35AM 27.5358 32.0191 168° South  Level Estimated
12:36AM 27.4126 32.0476 168° South  Level Estimated
12:37AM 27.2893 32.0760 168° South  Level Estimated
12:38AM 27.1661 32.1044 168° South  Level Estimated
12:39AM 27.0429 32.1327 168° South  Level Estimated
12:40AM 26.9196 32.1609 168° South  Level Estimated
12:41AM 26.7964 32.1891 168° South  Level Estimated
12:42AM 26.6731 32.2172 168° South  Level Estimated
12:43AM 26.5499 32.2452 168° South  Level Estimated
12:44AM 26.4266 32.2732 169° South  Level Estimated
12:45AM 26.3221 32.2968 169° South  Level Estimated
12:46AM 26.2177 32.3205 169° South  Level Estimated
12:47AM 26.1132 32.3441 169° South  Level Estimated
12:48AM 26.0087 32.3676 169° South  Level Estimated
12:49AM 25.9042 32.3911 169° South  Level Estimated
12:50AM 25.7998 32.4146 169° South  Level Estimated
12:51AM 25.6953 32.4380 169° South  Level Estimated
12:52AM 25.5908 32.4613 169° South  Level Estimated
12:53AM 25.4863 32.4847 169° South  Level Estimated
12:54AM 25.3818 32.5080 169° South  Level Estimated
12:55AM 25.2773 32.5312 169° South  Level Estimated
12:56AM 25.1728 32.5544 169° South  Level Estimated
12:57AM 25.0683 32.5776 169° South  Level Estimated
12:58AM 24.9638 32.6007 169° South  Level Estimated
12:59AM 24.8592 32.6238 169° South  Level Estimated
01:00AM 24.7547 32.6469 169° South  Level Estimated
01:01AM 24.6502 32.6699 169° South  Level Estimated
01:02AM 24.5457 32.6929 169° South  Level Estimated
01:03AM 24.4412 32.7158 169° South  Level Estimated
01:04AM 24.3366 32.7387 169° South  Level Estimated
01:05AM 24.2321 32.7616 169° South  Level Estimated
01:06AM 24.1275 32.7844 169° South  Level Estimated
01:07AM 24.0230 32.8072 169° South  Level Estimated
01:08AM 23.9644 32.8200 169° South  Level Estimated
01:09AM 23.9644 32.8200 229° Southwest  Level Estimated
01:10AM 23.9644 32.8200 229° Southwest  Level Estimated
01:11AM 23.9644 32.8200 229° Southwest  Level Estimated
01:12AM 23.9644 32.8200 229° Southwest  Level Estimated
01:13AM 23.9644 32.8200 229° Southwest  Level Estimated
01:14AM 23.9644 32.8200 229° Southwest  Level Estimated
01:15AM 23.9644 32.8200 229° Southwest  Level Estimated
01:16AM 23.9644 32.8200 229° Southwest  Level Estimated
01:17AM 23.9644 32.8200 229° Southwest  Level Estimated
01:18AM 23.9644 32.8200 229° Southwest  Level Estimated
01:19AM 23.9644 32.8200 229° Southwest  Level Estimated
01:20AM 23.9644 32.8200 229° Southwest  Level Estimated
01:21AM 23.9644 32.8200 229° Southwest  Level Estimated
01:22AM 23.9644 32.8200 229° Southwest  Level Estimated
01:23AM 23.9644 32.8200 229° Southwest  Level Estimated
01:24AM 23.9644 32.8200 229° Southwest  Level Estimated